sensor_id;sensor_type;location;lat;lon;timestamp;pressure;altitude;pressure_sealevel;temperature;humidity
56142;BME280;42018;48.588;10.836;2022-08-27T00:00:36;96575.81;;;20.23;68.60
56142;BME280;42018;48.588;10.836;2022-08-27T00:03:22;96575.28;;;20.30;68.15
56142;BME280;42018;48.588;10.836;2022-08-27T00:06:07;96572.38;;;20.35;67.61
56142;BME280;42018;48.588;10.836;2022-08-27T00:08:53;96578.91;;;20.46;66.96
56142;BME280;42018;48.588;10.836;2022-08-27T00:11:38;96568.81;;;20.43;66.98
56142;BME280;42018;48.588;10.836;2022-08-27T00:14:26;96571.81;;;20.42;67.17
56142;BME280;42018;48.588;10.836;2022-08-27T00:17:12;96577.78;;;20.35;67.58
56142;BME280;42018;48.588;10.836;2022-08-27T00:19:57;96569.31;;;20.58;66.43
56142;BME280;42018;48.588;10.836;2022-08-27T00:22:43;96566.75;;;20.73;65.65
56142;BME280;42018;48.588;10.836;2022-08-27T00:25:28;96573.16;;;20.81;64.98
56142;BME280;42018;48.588;10.836;2022-08-27T00:28:14;96569.13;;;20.75;65.73
56142;BME280;42018;48.588;10.836;2022-08-27T00:31:00;96573.38;;;20.76;65.63
56142;BME280;42018;48.588;10.836;2022-08-27T00:33:45;96565.53;;;20.71;65.71
56142;BME280;42018;48.588;10.836;2022-08-27T00:36:30;96563.81;;;20.54;65.51
56142;BME280;42018;48.588;10.836;2022-08-27T00:39:16;96569.88;;;20.30;66.80
56142;BME280;42018;48.588;10.836;2022-08-27T00:42:03;96564.97;;;20.32;66.84
56142;BME280;42018;48.588;10.836;2022-08-27T00:44:48;96564.25;;;20.23;66.85
56142;BME280;42018;48.588;10.836;2022-08-27T00:47:45;96562.88;;;20.17;67.30
56142;BME280;42018;48.588;10.836;2022-08-27T00:50:33;96560.75;;;20.10;67.38
56142;BME280;42018;48.588;10.836;2022-08-27T00:53:23;96562.44;;;20.15;67.12
56142;BME280;42018;48.588;10.836;2022-08-27T00:56:12;96564.19;;;19.98;67.84
56142;BME280;42018;48.588;10.836;2022-08-27T00:59:01;96571.19;;;19.91;68.02
56142;BME280;42018;48.588;10.836;2022-08-27T01:01:46;96573.38;;;19.97;67.92
56142;BME280;42018;48.588;10.836;2022-08-27T01:05:02;96580.44;;;20.02;67.77
56142;BME280;42018;48.588;10.836;2022-08-27T01:07:50;96580.31;;;19.98;68.22
56142;BME280;42018;48.588;10.836;2022-08-27T01:10:38;96585.38;;;20.00;68.24
56142;BME280;42018;48.588;10.836;2022-08-27T01:13:28;96571.78;;;20.17;67.63
56142;BME280;42018;48.588;10.836;2022-08-27T01:16:25;96577.97;;;19.97;68.67
56142;BME280;42018;48.588;10.836;2022-08-27T01:25:26;96578.09;;;20.00;69.09
56142;BME280;42018;48.588;10.836;2022-08-27T01:28:13;96580.13;;;20.03;69.13
56142;BME280;42018;48.588;10.836;2022-08-27T01:30:58;96580.97;;;19.95;69.42
56142;BME280;42018;48.588;10.836;2022-08-27T01:33:59;96581.81;;;19.87;69.50
56142;BME280;42018;48.588;10.836;2022-08-27T01:36:44;96580.56;;;19.84;69.76
56142;BME280;42018;48.588;10.836;2022-08-27T01:39:30;96581.38;;;19.85;70.18
56142;BME280;42018;48.588;10.836;2022-08-27T01:42:21;96596.06;;;19.88;69.85
56142;BME280;42018;48.588;10.836;2022-08-27T01:45:16;96590.56;;;19.84;70.48
56142;BME280;42018;48.588;10.836;2022-08-27T01:48:02;96593.72;;;19.86;70.74
56142;BME280;42018;48.588;10.836;2022-08-27T01:50:48;96587.06;;;19.83;70.91
56142;BME280;42018;48.588;10.836;2022-08-27T01:53:34;96590.41;;;19.80;71.02
56142;BME280;42018;48.588;10.836;2022-08-27T01:56:19;96581.22;;;19.81;71.22
56142;BME280;42018;48.588;10.836;2022-08-27T01:59:04;96581.22;;;19.81;71.31
56142;BME280;42018;48.588;10.836;2022-08-27T02:01:50;96586.75;;;19.85;71.17
56142;BME280;42018;48.588;10.836;2022-08-27T02:04:37;96588.66;;;19.84;70.95
56142;BME280;42018;48.588;10.836;2022-08-27T02:07:23;96584.84;;;19.85;70.81
56142;BME280;42018;48.588;10.836;2022-08-27T02:10:10;96599.41;;;19.84;70.86
56142;BME280;42018;48.588;10.836;2022-08-27T02:12:57;96590.41;;;19.80;70.72
56142;BME280;42018;48.588;10.836;2022-08-27T02:15:43;96583.91;;;19.81;70.69
56142;BME280;42018;48.588;10.836;2022-08-27T02:18:28;96585.50;;;19.82;70.13
56142;BME280;42018;48.588;10.836;2022-08-27T02:21:14;96583.88;;;19.90;70.57
56142;BME280;42018;48.588;10.836;2022-08-27T02:23:59;96584.72;;;19.82;70.28
56142;BME280;42018;48.588;10.836;2022-08-27T02:26:45;96585.16;;;19.84;70.04
56142;BME280;42018;48.588;10.836;2022-08-27T02:29:30;96579.13;;;19.87;70.34
56142;BME280;42018;48.588;10.836;2022-08-27T02:32:21;96574.63;;;19.79;70.66
56142;BME280;42018;48.588;10.836;2022-08-27T02:35:07;96567.59;;;19.87;70.10
56142;BME280;42018;48.588;10.836;2022-08-27T02:37:53;96560.44;;;19.91;69.60
56142;BME280;42018;48.588;10.836;2022-08-27T02:40:39;96563.91;;;19.91;69.67
56142;BME280;42018;48.588;10.836;2022-08-27T02:43:24;96563.72;;;19.96;69.54
56142;BME280;42018;48.588;10.836;2022-08-27T02:46:09;96563.38;;;19.98;69.14
56142;BME280;42018;48.588;10.836;2022-08-27T02:48:56;96554.63;;;19.89;69.62
56142;BME280;42018;48.588;10.836;2022-08-27T02:51:41;96558.00;;;19.98;69.28
56142;BME280;42018;48.588;10.836;2022-08-27T02:54:27;96554.78;;;20.04;68.75
56142;BME280;42018;48.588;10.836;2022-08-27T02:57:12;96555.91;;;20.03;69.13
56142;BME280;42018;48.588;10.836;2022-08-27T02:59:57;96560.50;;;20.03;68.75
56142;BME280;42018;48.588;10.836;2022-08-27T03:02:43;96554.13;;;20.07;68.78
56142;BME280;42018;48.588;10.836;2022-08-27T03:05:32;96552.47;;;20.15;68.36
56142;BME280;42018;48.588;10.836;2022-08-27T03:08:17;96560.06;;;20.13;68.46
56142;BME280;42018;48.588;10.836;2022-08-27T03:11:03;96558.50;;;20.12;68.21
56142;BME280;42018;48.588;10.836;2022-08-27T03:13:49;96557.97;;;20.19;68.35
56142;BME280;42018;48.588;10.836;2022-08-27T03:16:35;96555.53;;;20.26;67.61
56142;BME280;42018;48.588;10.836;2022-08-27T03:19:21;96549.94;;;20.31;67.48
56142;BME280;42018;48.588;10.836;2022-08-27T03:22:06;96556.06;;;20.19;68.10
56142;BME280;42018;48.588;10.836;2022-08-27T03:24:52;96550.78;;;20.11;68.37
56142;BME280;42018;48.588;10.836;2022-08-27T03:27:39;96544.28;;;20.12;68.64
56142;BME280;42018;48.588;10.836;2022-08-27T03:30:25;96540.47;;;20.13;68.35
56142;BME280;42018;48.588;10.836;2022-08-27T03:33:11;96547.97;;;20.07;68.40
56142;BME280;42018;48.588;10.836;2022-08-27T03:35:56;96552.44;;;20.03;68.59
56142;BME280;42018;48.588;10.836;2022-08-27T03:38:42;96551.06;;;19.97;68.72
56142;BME280;42018;48.588;10.836;2022-08-27T03:41:27;96543.56;;;20.02;68.68
56142;BME280;42018;48.588;10.836;2022-08-27T03:44:13;96541.25;;;20.13;67.88
56142;BME280;42018;48.588;10.836;2022-08-27T03:46:59;96547.09;;;20.15;67.60
56142;BME280;42018;48.588;10.836;2022-08-27T03:49:44;96542.75;;;20.23;67.25
56142;BME280;42018;48.588;10.836;2022-08-27T03:52:32;96544.44;;;20.27;66.90
56142;BME280;42018;48.588;10.836;2022-08-27T03:55:18;96537.81;;;20.25;67.26
56142;BME280;42018;48.588;10.836;2022-08-27T03:58:03;96551.41;;;20.28;67.22
56142;BME280;42018;48.588;10.836;2022-08-27T04:00:49;96541.19;;;20.34;66.60
56142;BME280;42018;48.588;10.836;2022-08-27T04:03:34;96540.75;;;20.32;66.81
56142;BME280;42018;48.588;10.836;2022-08-27T04:06:19;96530.91;;;20.36;66.45
56142;BME280;42018;48.588;10.836;2022-08-27T04:09:05;96532.34;;;20.33;66.66
56142;BME280;42018;48.588;10.836;2022-08-27T04:11:50;96525.50;;;20.36;66.59
56142;BME280;42018;48.588;10.836;2022-08-27T04:14:36;96526.41;;;20.28;66.70
56142;BME280;42018;48.588;10.836;2022-08-27T04:17:22;96526.41;;;20.28;66.96
56142;BME280;42018;48.588;10.836;2022-08-27T04:20:08;96532.88;;;20.27;66.65
56142;BME280;42018;48.588;10.836;2022-08-27T04:22:54;96534.22;;;20.21;66.46
56142;BME280;42018;48.588;10.836;2022-08-27T04:25:40;96536.94;;;20.21;66.66
56142;BME280;42018;48.588;10.836;2022-08-27T04:28:26;96543.94;;;20.13;66.79
56142;BME280;42018;48.588;10.836;2022-08-27T04:31:12;96548.53;;;20.13;67.10
56142;BME280;42018;48.588;10.836;2022-08-27T04:33:57;96550.19;;;20.05;67.13
56142;BME280;42018;48.588;10.836;2022-08-27T04:36:43;96552.31;;;19.99;67.69
56142;BME280;42018;48.588;10.836;2022-08-27T04:39:29;96557.09;;;19.94;67.94
56142;BME280;42018;48.588;10.836;2022-08-27T04:42:18;96540.06;;;19.90;68.32
56142;BME280;42018;48.588;10.836;2022-08-27T04:45:04;96557.63;;;19.87;68.12
56142;BME280;42018;48.588;10.836;2022-08-27T04:47:50;96556.72;;;19.83;68.27
56142;BME280;42018;48.588;10.836;2022-08-27T04:50:41;96555.22;;;19.73;67.93
56142;BME280;42018;48.588;10.836;2022-08-27T04:53:27;96546.38;;;19.73;68.25
56142;BME280;42018;48.588;10.836;2022-08-27T04:56:15;96547.13;;;19.94;67.17
56142;BME280;42018;48.588;10.836;2022-08-27T04:59:03;96547.84;;;20.03;67.20
56142;BME280;42018;48.588;10.836;2022-08-27T05:01:49;96552.31;;;19.99;67.94
56142;BME280;42018;48.588;10.836;2022-08-27T05:04:36;96553.41;;;19.98;68.03
56142;BME280;42018;48.588;10.836;2022-08-27T05:07:23;96555.69;;;20.08;67.17
56142;BME280;42018;48.588;10.836;2022-08-27T05:10:08;96554.50;;;20.18;67.21
56142;BME280;42018;48.588;10.836;2022-08-27T05:12:54;96555.16;;;20.15;67.50
56142;BME280;42018;48.588;10.836;2022-08-27T05:15:39;96558.63;;;20.16;67.32
56142;BME280;42018;48.588;10.836;2022-08-27T05:18:25;96564.19;;;19.98;68.08
56142;BME280;42018;48.588;10.836;2022-08-27T05:24:06;96556.59;;;20.13;67.22
56142;BME280;42018;48.588;10.836;2022-08-27T05:26:52;96565.38;;;20.22;67.14
56142;BME280;42018;48.588;10.836;2022-08-27T05:29:37;96566.88;;;20.31;66.89
56142;BME280;42018;48.588;10.836;2022-08-27T05:32:23;96562.75;;;20.46;65.88
56142;BME280;42018;48.588;10.836;2022-08-27T05:35:08;96563.81;;;20.54;65.69
56142;BME280;42018;48.588;10.836;2022-08-27T05:37:54;96559.22;;;20.54;65.67
56142;BME280;42018;48.588;10.836;2022-08-27T05:40:39;96554.31;;;20.69;64.96
56142;BME280;42018;48.588;10.836;2022-08-27T05:43:25;96556.53;;;20.67;65.46
56142;BME280;42018;48.588;10.836;2022-08-27T05:46:13;96553.28;;;20.61;65.50
56142;BME280;42018;48.588;10.836;2022-08-27T05:48:59;96557.22;;;20.64;65.37
56142;BME280;42018;48.588;10.836;2022-08-27T05:51:45;96549.81;;;20.73;65.33
56142;BME280;42018;48.588;10.836;2022-08-27T05:54:30;96551.59;;;20.56;67.25
56142;BME280;42018;48.588;10.836;2022-08-27T05:57:15;96557.38;;;20.46;67.94
56142;BME280;42018;48.588;10.836;2022-08-27T06:00:03;96560.50;;;20.36;68.67
56142;BME280;42018;48.588;10.836;2022-08-27T06:03:07;96561.94;;;20.33;68.50
56142;BME280;42018;48.588;10.836;2022-08-27T06:06:04;96562.81;;;20.25;68.93
56142;BME280;42018;48.588;10.836;2022-08-27T06:08:52;96567.06;;;20.26;68.47
56142;BME280;42018;48.588;10.836;2022-08-27T06:11:37;96565.03;;;20.23;69.43
56142;BME280;42018;48.588;10.836;2022-08-27T06:14:23;96565.94;;;20.27;69.70
56142;BME280;42018;48.588;10.836;2022-08-27T06:17:08;96568.34;;;20.41;68.88
56142;BME280;42018;48.588;10.836;2022-08-27T06:19:54;96567.25;;;20.42;69.34
56142;BME280;42018;48.588;10.836;2022-08-27T06:22:40;96565.91;;;20.48;68.37
56142;BME280;42018;48.588;10.836;2022-08-27T06:25:25;96561.75;;;20.39;69.11
56142;BME280;42018;48.588;10.836;2022-08-27T06:28:10;96567.75;;;20.56;68.74
56142;BME280;42018;48.588;10.836;2022-08-27T06:31:09;96565.22;;;20.39;68.45
56142;BME280;42018;48.588;10.836;2022-08-27T06:33:58;96563.19;;;20.48;68.82
56142;BME280;42018;48.588;10.836;2022-08-27T06:36:44;96563.72;;;20.63;68.82
56142;BME280;42018;48.588;10.836;2022-08-27T06:39:30;96561.69;;;20.60;68.86
56142;BME280;42018;48.588;10.836;2022-08-27T06:42:16;96567.28;;;20.54;68.74
56142;BME280;42018;48.588;10.836;2022-08-27T06:45:03;96564.59;;;20.54;68.70
56142;BME280;42018;48.588;10.836;2022-08-27T06:47:48;96568.88;;;20.80;67.45
56142;BME280;42018;48.588;10.836;2022-08-27T06:50:38;96560.81;;;20.68;68.58
56142;BME280;42018;48.588;10.836;2022-08-27T06:53:23;96570.47;;;20.69;68.50
56142;BME280;42018;48.588;10.836;2022-08-27T06:56:11;96579.56;;;20.43;69.26
56142;BME280;42018;48.588;10.836;2022-08-27T06:59:00;96580.13;;;20.49;69.39
56142;BME280;42018;48.588;10.836;2022-08-27T07:01:48;96575.38;;;20.67;69.44
56142;BME280;42018;48.588;10.836;2022-08-27T07:04:35;96576.66;;;20.82;68.03
56142;BME280;42018;48.588;10.836;2022-08-27T07:07:20;96574.59;;;20.54;69.20
56142;BME280;42018;48.588;10.836;2022-08-27T07:10:06;96577.41;;;20.58;69.14
56142;BME280;42018;48.588;10.836;2022-08-27T07:12:52;96576.50;;;20.66;68.97
56142;BME280;42018;48.588;10.836;2022-08-27T07:15:38;96577.19;;;20.75;68.57
56142;BME280;42018;48.588;10.836;2022-08-27T07:18:23;96581.38;;;20.97;67.81
56142;BME280;42018;48.588;10.836;2022-08-27T07:21:10;96578.88;;;21.16;67.25
56142;BME280;42018;48.588;10.836;2022-08-27T07:23:55;96580.28;;;21.35;66.99
56142;BME280;42018;48.588;10.836;2022-08-27T07:26:48;96585.75;;;21.50;66.78
56142;BME280;42018;48.588;10.836;2022-08-27T07:29:34;96586.94;;;21.65;65.26
56142;BME280;42018;48.588;10.836;2022-08-27T07:32:19;96588.91;;;21.52;65.57
56142;BME280;42018;48.588;10.836;2022-08-27T07:35:05;96588.53;;;21.54;65.90
56142;BME280;42018;48.588;10.836;2022-08-27T07:37:53;96594.56;;;21.75;65.62
56142;BME280;42018;48.588;10.836;2022-08-27T07:40:40;96595.50;;;21.67;64.77
56142;BME280;42018;48.588;10.836;2022-08-27T07:43:25;96594.88;;;21.86;64.76
56142;BME280;42018;48.588;10.836;2022-08-27T07:46:29;96605.09;;;21.81;65.31
56142;BME280;42018;48.588;10.836;2022-08-27T07:49:18;96601.66;;;21.56;65.49
56142;BME280;42018;48.588;10.836;2022-08-27T07:52:04;96601.66;;;21.56;65.52
56142;BME280;42018;48.588;10.836;2022-08-27T07:54:49;96606.59;;;21.66;65.76
56142;BME280;42018;48.588;10.836;2022-08-27T07:57:36;96615.75;;;21.49;66.10
56142;BME280;42018;48.588;10.836;2022-08-27T08:00:21;96625.72;;;21.61;65.77
56142;BME280;42018;48.588;10.836;2022-08-27T08:03:07;96620.75;;;21.63;65.74
56142;BME280;42018;48.588;10.836;2022-08-27T08:05:53;96613.78;;;21.74;65.17
56142;BME280;42018;48.588;10.836;2022-08-27T08:08:39;96618.59;;;21.81;65.48
56142;BME280;42018;48.588;10.836;2022-08-27T08:11:25;96624.53;;;21.86;65.17
56142;BME280;42018;48.588;10.836;2022-08-27T08:14:10;96623.59;;;21.54;66.12
56142;BME280;42018;48.588;10.836;2022-08-27T08:17:03;96631.22;;;21.27;66.50
56142;BME280;42018;48.588;10.836;2022-08-27T08:19:48;96632.78;;;21.65;66.20
56142;BME280;42018;48.588;10.836;2022-08-27T08:22:34;96630.09;;;21.78;65.51
56142;BME280;42018;48.588;10.836;2022-08-27T08:25:19;96633.63;;;21.94;65.06
56142;BME280;42018;48.588;10.836;2022-08-27T08:28:05;96633.63;;;21.94;64.73
56142;BME280;42018;48.588;10.836;2022-08-27T08:30:51;96632.56;;;22.11;64.89
56142;BME280;42018;48.588;10.836;2022-08-27T08:33:37;96639.75;;;22.19;64.62
56142;BME280;42018;48.588;10.836;2022-08-27T08:36:22;96635.06;;;22.04;64.58
56142;BME280;42018;48.588;10.836;2022-08-27T08:39:07;96628.41;;;22.13;64.06
56142;BME280;42018;48.588;10.836;2022-08-27T08:41:56;96643.50;;;22.42;63.06
56142;BME280;42018;48.588;10.836;2022-08-27T08:44:48;96641.97;;;22.57;63.23
56142;BME280;42018;48.588;10.836;2022-08-27T08:47:44;96636.91;;;22.56;62.81
56142;BME280;42018;48.588;10.836;2022-08-27T08:50:37;96638.22;;;22.62;62.95
56142;BME280;42018;48.588;10.836;2022-08-27T08:53:35;96639.72;;;22.75;62.12
56142;BME280;42018;48.588;10.836;2022-08-27T08:59:38;96637.91;;;22.79;61.54
56142;BME280;42018;48.588;10.836;2022-08-27T09:02:24;96633.28;;;22.64;62.77
56142;BME280;42018;48.588;10.836;2022-08-27T09:05:09;96633.78;;;22.54;63.07
56142;BME280;42018;48.588;10.836;2022-08-27T09:08:19;96633.81;;;22.01;64.17
56142;BME280;42018;48.588;10.836;2022-08-27T09:11:43;96630.47;;;22.16;64.53
56142;BME280;42018;48.588;10.836;2022-08-27T09:17:45;96629.63;;;22.72;62.04
56142;BME280;42018;48.588;10.836;2022-08-27T09:20:32;96631.59;;;23.03;60.92
56142;BME280;42018;48.588;10.836;2022-08-27T09:23:25;96626.91;;;23.16;60.72
56142;BME280;42018;48.588;10.836;2022-08-27T09:26:25;96639.28;;;23.17;59.80
56142;BME280;42018;48.588;10.836;2022-08-27T09:29:14;96638.91;;;23.34;60.07
56142;BME280;42018;48.588;10.836;2022-08-27T09:32:05;96627.97;;;23.47;59.86
56142;BME280;42018;48.588;10.836;2022-08-27T09:34:51;96630.69;;;23.47;59.32
56142;BME280;42018;48.588;10.836;2022-08-27T09:37:46;96632.38;;;23.35;58.88
56142;BME280;42018;48.588;10.836;2022-08-27T09:40:48;96629.97;;;23.50;59.18
56142;BME280;42018;48.588;10.836;2022-08-27T09:43:34;96631.19;;;23.68;58.59
56142;BME280;42018;48.588;10.836;2022-08-27T09:46:23;96631.34;;;23.75;58.34
56142;BME280;42018;48.588;10.836;2022-08-27T09:49:11;96631.66;;;23.89;58.98
56142;BME280;42018;48.588;10.836;2022-08-27T09:51:57;96631.09;;;23.80;57.49
56142;BME280;42018;48.588;10.836;2022-08-27T09:54:45;96620.22;;;23.45;58.48
56142;BME280;42018;48.588;10.836;2022-08-27T09:57:38;96619.13;;;23.81;58.05
56142;BME280;42018;48.588;10.836;2022-08-27T10:00:35;96619.28;;;23.88;56.83
56142;BME280;42018;48.588;10.836;2022-08-27T10:03:21;96621.06;;;24.00;57.59
56142;BME280;42018;48.588;10.836;2022-08-27T10:06:07;96622.59;;;23.31;58.74
56142;BME280;42018;48.588;10.836;2022-08-27T10:08:56;96620.59;;;23.28;58.63
56142;BME280;42018;48.588;10.836;2022-08-27T10:11:59;96611.22;;;23.57;57.83
56142;BME280;42018;48.588;10.836;2022-08-27T10:14:52;96609.84;;;23.82;57.40
56142;BME280;42018;48.588;10.836;2022-08-27T10:21:02;96606.25;;;23.59;57.14
56142;BME280;42018;48.588;10.836;2022-08-27T10:27:08;96602.41;;;23.09;58.76
56142;BME280;42018;48.588;10.836;2022-08-27T10:30:13;96589.84;;;23.01;58.58
56142;BME280;42018;48.588;10.836;2022-08-27T10:36:24;96593.59;;;23.63;57.27
56142;BME280;42018;48.588;10.836;2022-08-27T10:48:29;96590.31;;;24.08;55.48
56142;BME280;42018;48.588;10.836;2022-08-27T11:03:59;96595.41;;;24.13;55.56
56142;BME280;42018;48.588;10.836;2022-08-27T11:07:02;96600.81;;;23.94;55.62
56142;BME280;42018;48.588;10.836;2022-08-27T11:09:53;96602.63;;;24.06;54.93
56142;BME280;42018;48.588;10.836;2022-08-27T11:12:43;96598.50;;;24.12;54.91
56142;BME280;42018;48.588;10.836;2022-08-27T11:15:34;96594.91;;;24.08;55.13
56142;BME280;42018;48.588;10.836;2022-08-27T11:18:41;96599.69;;;24.14;54.90
56142;BME280;42018;48.588;10.836;2022-08-27T11:21:31;96594.53;;;24.29;55.11
56142;BME280;42018;48.588;10.836;2022-08-27T11:24:27;96589.84;;;24.26;55.27
56142;BME280;42018;48.588;10.836;2022-08-27T11:27:20;96585.00;;;24.35;55.45
56142;BME280;42018;48.588;10.836;2022-08-27T11:30:33;96581.66;;;24.42;54.99
56142;BME280;42018;48.588;10.836;2022-08-27T11:45:30;96574.66;;;24.60;53.83
56142;BME280;42018;48.588;10.836;2022-08-27T11:48:25;96570.00;;;25.06;53.23
56142;BME280;42018;48.588;10.836;2022-08-27T11:51:25;96565.09;;;25.12;52.41
56142;BME280;42018;48.588;10.836;2022-08-27T11:54:31;96570.44;;;24.85;53.03
56142;BME280;42018;48.588;10.836;2022-08-27T11:57:31;96574.78;;;24.67;54.69
56142;BME280;42018;48.588;10.836;2022-08-27T12:06:18;96560.97;;;24.76;54.48
56142;BME280;42018;48.588;10.836;2022-08-27T12:09:11;96565.31;;;24.80;54.52
56142;BME280;42018;48.588;10.836;2022-08-27T12:14:59;96565.25;;;24.77;55.12
56142;BME280;42018;48.588;10.836;2022-08-27T12:21:10;96560.41;;;24.90;53.92
56142;BME280;42018;48.588;10.836;2022-08-27T12:24:19;96556.28;;;24.96;54.13
56142;BME280;42018;48.588;10.836;2022-08-27T12:30:21;96554.00;;;24.98;54.31
56142;BME280;42018;48.588;10.836;2022-08-27T12:33:26;96556.56;;;25.14;54.59
56142;BME280;42018;48.588;10.836;2022-08-27T12:36:20;96555.00;;;25.13;54.08
56142;BME280;42018;48.588;10.836;2022-08-27T12:39:13;96552.03;;;25.21;54.66
56142;BME280;42018;48.588;10.836;2022-08-27T12:41:59;96553.00;;;25.09;54.64
56142;BME280;42018;48.588;10.836;2022-08-27T12:44:44;96554.63;;;25.14;54.78
56142;BME280;42018;48.588;10.836;2022-08-27T12:47:37;96558.44;;;24.87;54.93
56142;BME280;42018;48.588;10.836;2022-08-27T12:50:26;96556.88;;;24.85;55.71
56142;BME280;42018;48.588;10.836;2022-08-27T12:53:25;96554.78;;;24.75;56.29
56142;BME280;42018;48.588;10.836;2022-08-27T13:05:06;96557.91;;;24.54;57.46
56142;BME280;42018;48.588;10.836;2022-08-27T13:07:54;96558.38;;;24.60;57.64
56142;BME280;42018;48.588;10.836;2022-08-27T13:10:39;96558.03;;;24.61;57.13
56142;BME280;42018;48.588;10.836;2022-08-27T13:13:25;96554.41;;;24.54;56.78
56142;BME280;42018;48.588;10.836;2022-08-27T13:16:11;96551.94;;;24.68;56.38
56142;BME280;42018;48.588;10.836;2022-08-27T13:18:56;96544.81;;;25.06;56.33
56142;BME280;42018;48.588;10.836;2022-08-27T13:21:46;96543.03;;;24.91;55.36
56142;BME280;42018;48.588;10.836;2022-08-27T13:24:35;96550.41;;;24.94;55.22
56142;BME280;42018;48.588;10.836;2022-08-27T13:27:28;96557.47;;;24.75;55.49
56142;BME280;42018;48.588;10.836;2022-08-27T13:30:14;96548.41;;;24.87;55.48
56142;BME280;42018;48.588;10.836;2022-08-27T13:33:00;96550.34;;;24.90;55.92
56142;BME280;42018;48.588;10.836;2022-08-27T13:35:46;96546.22;;;25.19;54.97
56142;BME280;42018;48.588;10.836;2022-08-27T13:38:34;96544.72;;;25.52;54.53
56142;BME280;42018;48.588;10.836;2022-08-27T13:44:44;96559.38;;;26.08;53.34
56142;BME280;42018;48.588;10.836;2022-08-27T13:47:38;96555.31;;;25.91;52.33
56142;BME280;42018;48.588;10.836;2022-08-27T13:50:30;96552.41;;;25.76;53.37
56142;BME280;42018;48.588;10.836;2022-08-27T13:53:25;96555.63;;;25.55;53.31
56142;BME280;42018;48.588;10.836;2022-08-27T13:56:36;96558.88;;;25.68;53.47
56142;BME280;42018;48.588;10.836;2022-08-27T13:59:26;96552.53;;;25.57;53.35
56142;BME280;42018;48.588;10.836;2022-08-27T14:05:25;96552.91;;;25.55;53.71
56142;BME280;42018;48.588;10.836;2022-08-27T14:08:15;96546.56;;;26.05;53.50
56142;BME280;42018;48.588;10.836;2022-08-27T14:11:05;96550.94;;;26.50;51.88
56142;BME280;42018;48.588;10.836;2022-08-27T14:13:53;96555.84;;;26.37;51.56
56142;BME280;42018;48.588;10.836;2022-08-27T14:16:40;96554.50;;;26.20;51.48
56142;BME280;42018;48.588;10.836;2022-08-27T14:19:28;96547.25;;;26.69;50.03
56142;BME280;42018;48.588;10.836;2022-08-27T14:22:14;96541.50;;;26.81;50.48
56142;BME280;42018;48.588;10.836;2022-08-27T14:25:00;96540.38;;;26.86;49.16
56142;BME280;42018;48.588;10.836;2022-08-27T14:27:46;96546.63;;;26.90;47.69
56142;BME280;42018;48.588;10.836;2022-08-27T14:30:32;96540.38;;;26.86;47.47
56142;BME280;42018;48.588;10.836;2022-08-27T14:33:18;96535.53;;;26.61;48.56
56142;BME280;42018;48.588;10.836;2022-08-27T14:36:03;96534.75;;;26.64;49.17
56142;BME280;42018;48.588;10.836;2022-08-27T14:38:50;96536.00;;;26.74;49.44
56142;BME280;42018;48.588;10.836;2022-08-27T14:41:35;96526.13;;;27.03;50.11
56142;BME280;42018;48.588;10.836;2022-08-27T14:44:21;96526.84;;;26.93;49.22
56142;BME280;42018;48.588;10.836;2022-08-27T14:47:07;96519.56;;;26.56;49.45
56142;BME280;42018;48.588;10.836;2022-08-27T14:49:53;96525.63;;;26.46;50.33
56142;BME280;42018;48.588;10.836;2022-08-27T14:52:39;96521.16;;;26.23;49.80
56142;BME280;42018;48.588;10.836;2022-08-27T14:55:24;96521.66;;;25.99;50.53
56142;BME280;42018;48.588;10.836;2022-08-27T14:58:10;96519.25;;;25.90;51.45
56142;BME280;42018;48.588;10.836;2022-08-27T15:00:57;96518.75;;;25.81;50.82
56142;BME280;42018;48.588;10.836;2022-08-27T15:03:45;96517.44;;;26.01;51.29
56142;BME280;42018;48.588;10.836;2022-08-27T15:06:31;96519.72;;;25.99;51.54
56142;BME280;42018;48.588;10.836;2022-08-27T15:09:17;96526.19;;;25.88;51.38
56142;BME280;42018;48.588;10.836;2022-08-27T15:12:03;96525.88;;;25.93;51.35
56142;BME280;42018;48.588;10.836;2022-08-27T15:14:48;96532.78;;;25.87;51.46
56142;BME280;42018;48.588;10.836;2022-08-27T15:17:34;96525.09;;;25.92;51.59
56142;BME280;42018;48.588;10.836;2022-08-27T15:20:20;96527.97;;;25.76;52.32
56142;BME280;42018;48.588;10.836;2022-08-27T15:23:05;96523.56;;;25.65;52.83
56142;BME280;42018;48.588;10.836;2022-08-27T15:25:51;96535.56;;;25.64;53.48
56142;BME280;42018;48.588;10.836;2022-08-27T15:28:37;96529.13;;;25.45;54.24
56142;BME280;42018;48.588;10.836;2022-08-27T15:31:22;96531.38;;;25.40;54.41
56142;BME280;42018;48.588;10.836;2022-08-27T15:34:09;96523.94;;;25.10;55.14
56142;BME280;42018;48.588;10.836;2022-08-27T15:36:54;96520.28;;;25.22;55.19
56142;BME280;42018;48.588;10.836;2022-08-27T15:39:41;96528.06;;;25.00;55.35
56142;BME280;42018;48.588;10.836;2022-08-27T15:42:26;96515.38;;;24.81;55.03
56142;BME280;42018;48.588;10.836;2022-08-27T15:45:13;96518.88;;;24.82;55.51
56142;BME280;42018;48.588;10.836;2022-08-27T15:47:59;96520.81;;;24.81;55.60
56142;BME280;42018;48.588;10.836;2022-08-27T15:50:44;96522.19;;;24.95;55.23
56142;BME280;42018;48.588;10.836;2022-08-27T15:53:30;96518.22;;;24.89;55.44
56142;BME280;42018;48.588;10.836;2022-08-27T15:56:15;96523.94;;;24.83;54.65
56142;BME280;42018;48.588;10.836;2022-08-27T15:59:01;96514.97;;;24.79;55.23
56142;BME280;42018;48.588;10.836;2022-08-27T16:01:46;96519.25;;;25.07;54.71
56142;BME280;42018;48.588;10.836;2022-08-27T16:04:32;96522.09;;;25.14;54.04
56142;BME280;42018;48.588;10.836;2022-08-27T16:07:17;96517.59;;;25.25;54.16
56142;BME280;42018;48.588;10.836;2022-08-27T16:10:04;96523.56;;;25.35;53.14